sensor_id;sensor_type;location;lat;lon;timestamp;P1;durP1;ratioP1;P2;durP2;ratioP2
82294;SDS011;71893;49.338;8.674;2023-07-31T00:00:26;3.15;;;1.80;;
82294;SDS011;71893;49.338;8.674;2023-07-31T00:01:26;2.10;;;1.60;;
82294;SDS011;71893;49.338;8.674;2023-07-31T00:02:27;3.10;;;1.60;;
82294;SDS011;71893;49.338;8.674;2023-07-31T00:04:27;2.20;;;1.50;;
82294;SDS011;71893;49.338;8.674;2023-07-31T00:05:27;2.50;;;1.60;;
82294;SDS011;71893;49.338;8.674;2023-07-31T00:06:27;3.37;;;1.50;;
82294;SDS011;71893;49.338;8.674;2023-07-31T00:07:28;3.63;;;2.08;;
82294;SDS011;71893;49.338;8.674;2023-07-31T00:08:28;3.72;;;1.55;;
82294;SDS011;71893;49.338;8.674;2023-07-31T00:09:28;3.25;;;1.70;;
82294;SDS011;71893;49.338;8.674;2023-07-31T00:10:28;2.95;;;1.83;;
82294;SDS011;71893;49.338;8.674;2023-07-31T00:11:28;3.40;;;1.70;;
82294;SDS011;71893;49.338;8.674;2023-07-31T00:12:29;2.80;;;1.93;;
82294;SDS011;71893;49.338;8.674;2023-07-31T00:13:29;2.77;;;1.70;;
82294;SDS011;71893;49.338;8.674;2023-07-31T00:14:29;2.60;;;1.63;;
82294;SDS011;71893;49.338;8.674;2023-07-31T00:15:29;2.92;;;1.90;;
82294;SDS011;71893;49.338;8.674;2023-07-31T00:16:29;2.25;;;1.70;;
82294;SDS011;71893;49.338;8.674;2023-07-31T00:18:30;1.97;;;1.40;;
82294;SDS011;71893;49.338;8.674;2023-07-31T00:19:30;2.40;;;1.70;;
82294;SDS011;71893;49.338;8.674;2023-07-31T00:20:30;2.50;;;1.60;;
82294;SDS011;71893;49.338;8.674;2023-07-31T00:22:30;2.73;;;1.43;;
82294;SDS011;71893;49.338;8.674;2023-07-31T00:23:31;2.78;;;1.50;;
82294;SDS011;71893;49.338;8.674;2023-07-31T00:24:31;2.20;;;1.47;;
82294;SDS011;71893;49.338;8.674;2023-07-31T00:25:31;2.20;;;1.60;;
82294;SDS011;71893;49.338;8.674;2023-07-31T00:26:31;3.10;;;1.83;;
82294;SDS011;71893;49.338;8.674;2023-07-31T00:27:32;2.77;;;1.50;;
82294;SDS011;71893;49.338;8.674;2023-07-31T00:29:32;2.83;;;1.60;;
82294;SDS011;71893;49.338;8.674;2023-07-31T00:30:32;1.85;;;1.45;;
82294;SDS011;71893;49.338;8.674;2023-07-31T00:31:32;2.50;;;1.60;;
82294;SDS011;71893;49.338;8.674;2023-07-31T00:32:33;2.40;;;1.60;;
82294;SDS011;71893;49.338;8.674;2023-07-31T00:33:34;2.37;;;1.67;;
82294;SDS011;71893;49.338;8.674;2023-07-31T00:34:34;2.95;;;1.63;;
82294;SDS011;71893;49.338;8.674;2023-07-31T00:35:34;2.60;;;1.60;;
82294;SDS011;71893;49.338;8.674;2023-07-31T00:36:35;2.90;;;1.63;;
82294;SDS011;71893;49.338;8.674;2023-07-31T00:37:35;2.72;;;1.88;;
82294;SDS011;71893;49.338;8.674;2023-07-31T00:38:35;2.15;;;1.55;;
82294;SDS011;71893;49.338;8.674;2023-07-31T00:39:35;2.33;;;1.53;;
82294;SDS011;71893;49.338;8.674;2023-07-31T00:40:36;2.33;;;1.42;;
82294;SDS011;71893;49.338;8.674;2023-07-31T00:41:39;2.78;;;1.67;;
82294;SDS011;71893;49.338;8.674;2023-07-31T00:42:39;2.47;;;1.50;;
82294;SDS011;71893;49.338;8.674;2023-07-31T00:44:40;2.50;;;1.50;;
82294;SDS011;71893;49.338;8.674;2023-07-31T00:45:40;2.63;;;1.80;;
82294;SDS011;71893;49.338;8.674;2023-07-31T00:46:40;1.88;;;1.50;;
82294;SDS011;71893;49.338;8.674;2023-07-31T00:47:40;2.27;;;1.50;;
82294;SDS011;71893;49.338;8.674;2023-07-31T00:48:41;2.05;;;1.55;;
82294;SDS011;71893;49.338;8.674;2023-07-31T00:50:41;2.70;;;1.70;;
82294;SDS011;71893;49.338;8.674;2023-07-31T00:51:41;2.20;;;1.45;;
82294;SDS011;71893;49.338;8.674;2023-07-31T00:52:42;1.88;;;1.20;;
82294;SDS011;71893;49.338;8.674;2023-07-31T00:53:42;2.60;;;1.40;;
82294;SDS011;71893;49.338;8.674;2023-07-31T00:55:43;2.87;;;1.50;;
82294;SDS011;71893;49.338;8.674;2023-07-31T00:56:44;2.30;;;1.45;;
82294;SDS011;71893;49.338;8.674;2023-07-31T00:57:45;2.42;;;1.58;;
82294;SDS011;71893;49.338;8.674;2023-07-31T00:58:45;2.42;;;1.63;;
82294;SDS011;71893;49.338;8.674;2023-07-31T00:59:45;2.17;;;1.57;;
82294;SDS011;71893;49.338;8.674;2023-07-31T01:01:46;2.53;;;1.40;;
82294;SDS011;71893;49.338;8.674;2023-07-31T01:02:47;2.33;;;1.60;;
82294;SDS011;71893;49.338;8.674;2023-07-31T01:03:48;2.85;;;1.60;;
82294;SDS011;71893;49.338;8.674;2023-07-31T01:04:51;2.70;;;1.80;;
82294;SDS011;71893;49.338;8.674;2023-07-31T01:06:10;2.35;;;1.58;;
82294;SDS011;71893;49.338;8.674;2023-07-31T01:07:18;2.40;;;1.52;;
82294;SDS011;71893;49.338;8.674;2023-07-31T01:08:25;2.60;;;1.58;;
82294;SDS011;71893;49.338;8.674;2023-07-31T01:10:27;2.63;;;1.60;;
82294;SDS011;71893;49.338;8.674;2023-07-31T01:11:31;1.77;;;1.40;;
82294;SDS011;71893;49.338;8.674;2023-07-31T01:12:33;2.42;;;1.40;;
82294;SDS011;71893;49.338;8.674;2023-07-31T01:13:34;2.50;;;1.60;;
82294;SDS011;71893;49.338;8.674;2023-07-31T01:14:35;2.47;;;1.55;;
82294;SDS011;71893;49.338;8.674;2023-07-31T01:15:35;1.95;;;1.50;;
82294;SDS011;71893;49.338;8.674;2023-07-31T01:16:36;2.38;;;1.50;;
82294;SDS011;71893;49.338;8.674;2023-07-31T01:17:36;2.60;;;1.50;;
82294;SDS011;71893;49.338;8.674;2023-07-31T01:18:37;2.60;;;1.48;;
82294;SDS011;71893;49.338;8.674;2023-07-31T01:19:37;2.20;;;1.50;;
82294;SDS011;71893;49.338;8.674;2023-07-31T01:20:37;2.50;;;1.48;;
82294;SDS011;71893;49.338;8.674;2023-07-31T01:22:03;2.00;;;1.40;;
82294;SDS011;71893;49.338;8.674;2023-07-31T01:23:23;3.53;;;1.60;;
82294;SDS011;71893;49.338;8.674;2023-07-31T01:26:27;2.78;;;1.70;;
82294;SDS011;71893;49.338;8.674;2023-07-31T01:27:29;2.33;;;1.55;;
82294;SDS011;71893;49.338;8.674;2023-07-31T01:28:38;2.40;;;1.50;;
82294;SDS011;71893;49.338;8.674;2023-07-31T01:29:55;2.22;;;1.60;;
82294;SDS011;71893;49.338;8.674;2023-07-31T01:30:56;2.10;;;1.33;;
82294;SDS011;71893;49.338;8.674;2023-07-31T01:31:57;2.10;;;1.58;;
82294;SDS011;71893;49.338;8.674;2023-07-31T01:33:01;2.83;;;1.65;;
82294;SDS011;71893;49.338;8.674;2023-07-31T01:34:06;2.40;;;1.60;;
82294;SDS011;71893;49.338;8.674;2023-07-31T01:35:08;2.03;;;1.52;;
82294;SDS011;71893;49.338;8.674;2023-07-31T01:36:09;2.40;;;1.50;;
82294;SDS011;71893;49.338;8.674;2023-07-31T01:37:10;2.90;;;1.70;;
82294;SDS011;71893;49.338;8.674;2023-07-31T01:38:10;2.20;;;1.40;;
82294;SDS011;71893;49.338;8.674;2023-07-31T01:40:10;2.77;;;1.47;;
82294;SDS011;71893;49.338;8.674;2023-07-31T01:41:10;2.40;;;1.60;;
82294;SDS011;71893;49.338;8.674;2023-07-31T01:42:11;2.30;;;1.58;;
82294;SDS011;71893;49.338;8.674;2023-07-31T01:43:11;2.45;;;1.60;;
82294;SDS011;71893;49.338;8.674;2023-07-31T01:44:11;2.20;;;1.40;;
82294;SDS011;71893;49.338;8.674;2023-07-31T01:45:11;2.13;;;1.45;;
82294;SDS011;71893;49.338;8.674;2023-07-31T01:46:12;1.70;;;1.20;;
82294;SDS011;71893;49.338;8.674;2023-07-31T01:47:12;2.30;;;1.57;;
82294;SDS011;71893;49.338;8.674;2023-07-31T01:48:12;2.10;;;1.43;;
82294;SDS011;71893;49.338;8.674;2023-07-31T01:50:12;1.97;;;1.50;;
82294;SDS011;71893;49.338;8.674;2023-07-31T01:51:13;2.50;;;1.70;;
82294;SDS011;71893;49.338;8.674;2023-07-31T01:52:13;2.75;;;1.70;;
82294;SDS011;71893;49.338;8.674;2023-07-31T01:53:13;2.13;;;1.40;;
82294;SDS011;71893;49.338;8.674;2023-07-31T01:55:13;2.60;;;1.30;;
82294;SDS011;71893;49.338;8.674;2023-07-31T01:57:14;2.20;;;1.40;;
82294;SDS011;71893;49.338;8.674;2023-07-31T01:59:14;2.03;;;1.40;;
82294;SDS011;71893;49.338;8.674;2023-07-31T02:00:14;3.17;;;1.70;;
82294;SDS011;71893;49.338;8.674;2023-07-31T02:02:15;2.50;;;1.50;;
82294;SDS011;71893;49.338;8.674;2023-07-31T02:03:15;3.10;;;1.40;;
82294;SDS011;71893;49.338;8.674;2023-07-31T02:04:15;2.50;;;1.40;;
82294;SDS011;71893;49.338;8.674;2023-07-31T02:06:16;1.97;;;1.37;;
82294;SDS011;71893;49.338;8.674;2023-07-31T02:07:16;2.15;;;1.70;;
82294;SDS011;71893;49.338;8.674;2023-07-31T02:08:16;2.55;;;1.65;;
82294;SDS011;71893;49.338;8.674;2023-07-31T02:09:16;1.88;;;1.30;;
82294;SDS011;71893;49.338;8.674;2023-07-31T02:10:17;2.00;;;1.40;;
82294;SDS011;71893;49.338;8.674;2023-07-31T02:11:17;1.85;;;1.30;;
82294;SDS011;71893;49.338;8.674;2023-07-31T02:12:18;2.13;;;1.42;;
82294;SDS011;71893;49.338;8.674;2023-07-31T02:13:18;2.00;;;1.30;;
82294;SDS011;71893;49.338;8.674;2023-07-31T02:15:18;1.97;;;1.40;;
82294;SDS011;71893;49.338;8.674;2023-07-31T02:16:18;2.45;;;1.40;;
82294;SDS011;71893;49.338;8.674;2023-07-31T02:17:19;1.93;;;1.33;;
82294;SDS011;71893;49.338;8.674;2023-07-31T02:18:19;2.80;;;1.60;;
82294;SDS011;71893;49.338;8.674;2023-07-31T02:20:19;2.10;;;1.30;;
82294;SDS011;71893;49.338;8.674;2023-07-31T02:21:19;3.10;;;1.50;;
82294;SDS011;71893;49.338;8.674;2023-07-31T02:23:19;2.27;;;1.57;;
82294;SDS011;71893;49.338;8.674;2023-07-31T02:24:20;2.23;;;1.63;;
82294;SDS011;71893;49.338;8.674;2023-07-31T02:25:20;1.77;;;1.25;;
82294;SDS011;71893;49.338;8.674;2023-07-31T02:26:20;1.90;;;1.20;;
82294;SDS011;71893;49.338;8.674;2023-07-31T02:27:20;2.63;;;1.40;;
82294;SDS011;71893;49.338;8.674;2023-07-31T02:28:25;2.22;;;1.42;;
82294;SDS011;71893;49.338;8.674;2023-07-31T02:29:25;1.80;;;1.20;;
82294;SDS011;71893;49.338;8.674;2023-07-31T02:30:25;2.20;;;1.50;;
82294;SDS011;71893;49.338;8.674;2023-07-31T02:31:25;1.95;;;1.35;;
82294;SDS011;71893;49.338;8.674;2023-07-31T02:32:26;2.20;;;1.40;;
82294;SDS011;71893;49.338;8.674;2023-07-31T02:33:26;2.88;;;1.70;;
82294;SDS011;71893;49.338;8.674;2023-07-31T02:34:26;2.30;;;1.47;;
82294;SDS011;71893;49.338;8.674;2023-07-31T02:35:26;2.00;;;1.40;;
82294;SDS011;71893;49.338;8.674;2023-07-31T02:37:26;2.37;;;1.70;;
82294;SDS011;71893;49.338;8.674;2023-07-31T02:38:28;2.17;;;1.48;;
82294;SDS011;71893;49.338;8.674;2023-07-31T02:39:28;2.07;;;1.40;;
82294;SDS011;71893;49.338;8.674;2023-07-31T02:41:29;2.20;;;1.50;;
82294;SDS011;71893;49.338;8.674;2023-07-31T02:43:29;1.87;;;1.40;;
82294;SDS011;71893;49.338;8.674;2023-07-31T02:44:29;2.50;;;1.50;;
82294;SDS011;71893;49.338;8.674;2023-07-31T02:46:30;2.13;;;1.50;;
82294;SDS011;71893;49.338;8.674;2023-07-31T02:47:30;2.65;;;1.50;;
82294;SDS011;71893;49.338;8.674;2023-07-31T02:48:30;2.00;;;1.30;;
82294;SDS011;71893;49.338;8.674;2023-07-31T02:49:30;2.08;;;1.40;;
82294;SDS011;71893;49.338;8.674;2023-07-31T02:50:30;2.20;;;1.50;;
82294;SDS011;71893;49.338;8.674;2023-07-31T02:51:32;1.77;;;1.30;;
82294;SDS011;71893;49.338;8.674;2023-07-31T02:52:32;2.13;;;1.53;;
82294;SDS011;71893;49.338;8.674;2023-07-31T02:54:32;2.83;;;1.50;;
82294;SDS011;71893;49.338;8.674;2023-07-31T02:55:32;2.23;;;1.93;;
82294;SDS011;71893;49.338;8.674;2023-07-31T02:56:32;1.77;;;1.33;;
82294;SDS011;71893;49.338;8.674;2023-07-31T02:58:33;1.87;;;1.23;;
82294;SDS011;71893;49.338;8.674;2023-07-31T02:59:33;3.33;;;1.40;;
82294;SDS011;71893;49.338;8.674;2023-07-31T03:00:33;2.17;;;1.43;;
82294;SDS011;71893;49.338;8.674;2023-07-31T03:01:33;2.17;;;1.50;;
82294;SDS011;71893;49.338;8.674;2023-07-31T03:03:33;1.53;;;1.30;;
82294;SDS011;71893;49.338;8.674;2023-07-31T03:04:34;2.90;;;1.40;;
82294;SDS011;71893;49.338;8.674;2023-07-31T03:05:34;2.20;;;1.30;;
82294;SDS011;71893;49.338;8.674;2023-07-31T03:06:34;2.40;;;1.30;;
82294;SDS011;71893;49.338;8.674;2023-07-31T03:08:34;2.27;;;1.40;;
82294;SDS011;71893;49.338;8.674;2023-07-31T03:09:35;2.10;;;1.30;;
82294;SDS011;71893;49.338;8.674;2023-07-31T03:11:35;1.87;;;1.50;;
82294;SDS011;71893;49.338;8.674;2023-07-31T03:12:35;1.87;;;1.30;;
82294;SDS011;71893;49.338;8.674;2023-07-31T03:14:35;1.83;;;1.13;;
82294;SDS011;71893;49.338;8.674;2023-07-31T03:15:35;2.35;;;1.40;;
82294;SDS011;71893;49.338;8.674;2023-07-31T03:16:36;1.80;;;1.40;;
82294;SDS011;71893;49.338;8.674;2023-07-31T03:18:36;2.23;;;1.43;;
82294;SDS011;71893;49.338;8.674;2023-07-31T03:19:36;1.77;;;1.30;;
82294;SDS011;71893;49.338;8.674;2023-07-31T03:20:36;1.95;;;1.45;;
82294;SDS011;71893;49.338;8.674;2023-07-31T03:21:36;1.47;;;1.17;;
82294;SDS011;71893;49.338;8.674;2023-07-31T03:23:37;2.10;;;1.50;;
82294;SDS011;71893;49.338;8.674;2023-07-31T03:24:38;2.47;;;1.40;;
82294;SDS011;71893;49.338;8.674;2023-07-31T03:26:38;2.17;;;1.40;;
82294;SDS011;71893;49.338;8.674;2023-07-31T03:27:41;2.40;;;1.42;;
82294;SDS011;71893;49.338;8.674;2023-07-31T03:28:41;3.03;;;1.57;;
82294;SDS011;71893;49.338;8.674;2023-07-31T03:30:41;2.80;;;1.80;;
82294;SDS011;71893;49.338;8.674;2023-07-31T03:31:42;3.30;;;2.00;;
82294;SDS011;71893;49.338;8.674;2023-07-31T03:32:42;4.35;;;2.20;;
82294;SDS011;71893;49.338;8.674;2023-07-31T03:33:42;2.73;;;1.80;;
82294;SDS011;71893;49.338;8.674;2023-07-31T03:34:42;3.43;;;2.10;;
82294;SDS011;71893;49.338;8.674;2023-07-31T03:36:42;3.10;;;1.70;;
82294;SDS011;71893;49.338;8.674;2023-07-31T03:37:43;4.10;;;1.70;;
82294;SDS011;71893;49.338;8.674;2023-07-31T03:38:43;2.83;;;1.50;;
82294;SDS011;71893;49.338;8.674;2023-07-31T03:39:43;2.20;;;1.40;;
82294;SDS011;71893;49.338;8.674;2023-07-31T03:41:43;3.23;;;1.70;;
82294;SDS011;71893;49.338;8.674;2023-07-31T03:42:44;3.60;;;1.87;;
82294;SDS011;71893;49.338;8.674;2023-07-31T03:44:44;2.90;;;1.80;;
82294;SDS011;71893;49.338;8.674;2023-07-31T03:45:44;2.92;;;1.92;;
82294;SDS011;71893;49.338;8.674;2023-07-31T03:46:44;2.40;;;1.60;;
82294;SDS011;71893;49.338;8.674;2023-07-31T03:47:45;2.47;;;1.60;;
82294;SDS011;71893;49.338;8.674;2023-07-31T03:49:45;3.00;;;1.67;;
82294;SDS011;71893;49.338;8.674;2023-07-31T03:50:45;3.53;;;1.80;;
82294;SDS011;71893;49.338;8.674;2023-07-31T03:52:45;1.97;;;1.53;;
82294;SDS011;71893;49.338;8.674;2023-07-31T03:53:46;2.33;;;1.63;;
82294;SDS011;71893;49.338;8.674;2023-07-31T03:54:46;4.35;;;1.80;;
82294;SDS011;71893;49.338;8.674;2023-07-31T03:55:46;3.03;;;1.37;;
82294;SDS011;71893;49.338;8.674;2023-07-31T03:57:46;2.30;;;1.50;;
82294;SDS011;71893;49.338;8.674;2023-07-31T03:58:46;3.43;;;1.77;;
82294;SDS011;71893;49.338;8.674;2023-07-31T04:00:47;2.20;;;1.60;;
82294;SDS011;71893;49.338;8.674;2023-07-31T04:01:47;2.97;;;1.70;;
82294;SDS011;71893;49.338;8.674;2023-07-31T04:02:47;2.67;;;1.73;;
82294;SDS011;71893;49.338;8.674;2023-07-31T04:03:47;3.23;;;1.40;;
82294;SDS011;71893;49.338;8.674;2023-07-31T04:05:48;2.50;;;1.53;;
82294;SDS011;71893;49.338;8.674;2023-07-31T04:06:48;2.17;;;1.60;;
82294;SDS011;71893;49.338;8.674;2023-07-31T04:07:48;2.30;;;1.50;;
82294;SDS011;71893;49.338;8.674;2023-07-31T04:08:48;2.40;;;1.50;;
82294;SDS011;71893;49.338;8.674;2023-07-31T04:09:48;2.15;;;1.42;;
82294;SDS011;71893;49.338;8.674;2023-07-31T04:10:49;3.15;;;1.55;;
82294;SDS011;71893;49.338;8.674;2023-07-31T04:11:49;1.83;;;1.40;;
82294;SDS011;71893;49.338;8.674;2023-07-31T04:12:49;1.92;;;1.33;;
82294;SDS011;71893;49.338;8.674;2023-07-31T04:13:49;2.80;;;1.40;;
82294;SDS011;71893;49.338;8.674;2023-07-31T04:14:49;3.17;;;1.60;;
82294;SDS011;71893;49.338;8.674;2023-07-31T04:16:54;3.67;;;1.73;;
82294;SDS011;71893;49.338;8.674;2023-07-31T04:17:54;2.40;;;1.50;;
82294;SDS011;71893;49.338;8.674;2023-07-31T04:19:54;2.60;;;1.67;;
82294;SDS011;71893;49.338;8.674;2023-07-31T04:20:54;4.75;;;1.48;;
82294;SDS011;71893;49.338;8.674;2023-07-31T04:21:55;1.97;;;1.43;;
82294;SDS011;71893;49.338;8.674;2023-07-31T04:23:55;2.23;;;1.63;;
82294;SDS011;71893;49.338;8.674;2023-07-31T04:24:56;2.33;;;1.52;;
82294;SDS011;71893;49.338;8.674;2023-07-31T04:25:56;2.33;;;1.42;;
82294;SDS011;71893;49.338;8.674;2023-07-31T04:26:56;2.47;;;1.48;;
82294;SDS011;71893;49.338;8.674;2023-07-31T04:27:56;2.35;;;1.50;;
82294;SDS011;71893;49.338;8.674;2023-07-31T04:29:57;2.33;;;1.60;;
82294;SDS011;71893;49.338;8.674;2023-07-31T04:30:57;2.20;;;1.50;;
82294;SDS011;71893;49.338;8.674;2023-07-31T04:32:57;2.63;;;1.60;;
82294;SDS011;71893;49.338;8.674;2023-07-31T04:33:58;2.73;;;1.40;;
82294;SDS011;71893;49.338;8.674;2023-07-31T04:34:58;2.67;;;1.45;;
82294;SDS011;71893;49.338;8.674;2023-07-31T04:35:59;2.53;;;1.60;;
82294;SDS011;71893;49.338;8.674;2023-07-31T04:37:59;2.10;;;1.50;;
82294;SDS011;71893;49.338;8.674;2023-07-31T04:38:59;1.97;;;1.40;;
82294;SDS011;71893;49.338;8.674;2023-07-31T04:39:59;2.60;;;1.60;;
82294;SDS011;71893;49.338;8.674;2023-07-31T04:40:59;2.77;;;1.33;;
82294;SDS011;71893;49.338;8.674;2023-07-31T04:42:00;2.10;;;1.40;;
82294;SDS011;71893;49.338;8.674;2023-07-31T04:44:00;3.57;;;1.73;;
82294;SDS011;71893;49.338;8.674;2023-07-31T04:45:01;1.48;;;1.10;;
82294;SDS011;71893;49.338;8.674;2023-07-31T04:46:01;2.20;;;1.50;;
82294;SDS011;71893;49.338;8.674;2023-07-31T04:48:02;2.72;;;1.45;;
82294;SDS011;71893;49.338;8.674;2023-07-31T04:49:02;2.72;;;1.42;;
82294;SDS011;71893;49.338;8.674;2023-07-31T04:50:03;5.78;;;1.45;;
82294;SDS011;71893;49.338;8.674;2023-07-31T04:51:03;2.33;;;1.50;;
82294;SDS011;71893;49.338;8.674;2023-07-31T04:52:03;2.17;;;1.45;;
82294;SDS011;71893;49.338;8.674;2023-07-31T04:53:03;2.10;;;1.50;;
82294;SDS011;71893;49.338;8.674;2023-07-31T04:55:04;2.20;;;1.23;;
82294;SDS011;71893;49.338;8.674;2023-07-31T04:56:04;2.10;;;1.38;;
82294;SDS011;71893;49.338;8.674;2023-07-31T04:57:04;3.20;;;1.70;;
82294;SDS011;71893;49.338;8.674;2023-07-31T04:59:05;2.70;;;1.70;;
82294;SDS011;71893;49.338;8.674;2023-07-31T05:01:05;2.33;;;1.40;;
82294;SDS011;71893;49.338;8.674;2023-07-31T05:02:06;1.63;;;1.30;;
82294;SDS011;71893;49.338;8.674;2023-07-31T05:03:07;2.50;;;1.35;;
82294;SDS011;71893;49.338;8.674;2023-07-31T05:04:07;2.33;;;1.60;;
82294;SDS011;71893;49.338;8.674;2023-07-31T05:05:07;2.33;;;1.52;;
82294;SDS011;71893;49.338;8.674;2023-07-31T05:06:08;2.22;;;1.30;;
82294;SDS011;71893;49.338;8.674;2023-07-31T05:07:08;2.97;;;1.40;;
82294;SDS011;71893;49.338;8.674;2023-07-31T05:08:08;2.65;;;1.60;;
82294;SDS011;71893;49.338;8.674;2023-07-31T05:09:08;2.60;;;1.50;;
82294;SDS011;71893;49.338;8.674;2023-07-31T05:10:12;2.38;;;1.30;;
82294;SDS011;71893;49.338;8.674;2023-07-31T05:11:12;2.75;;;1.65;;
82294;SDS011;71893;49.338;8.674;2023-07-31T05:12:12;3.73;;;1.77;;
82294;SDS011;71893;49.338;8.674;2023-07-31T05:14:13;2.47;;;1.70;;
82294;SDS011;71893;49.338;8.674;2023-07-31T05:15:13;2.80;;;1.63;;
82294;SDS011;71893;49.338;8.674;2023-07-31T05:16:13;2.03;;;1.40;;
82294;SDS011;71893;49.338;8.674;2023-07-31T05:17:14;6.40;;;1.85;;
82294;SDS011;71893;49.338;8.674;2023-07-31T05:18:14;3.87;;;1.63;;
82294;SDS011;71893;49.338;8.674;2023-07-31T05:19:14;4.00;;;1.40;;
82294;SDS011;71893;49.338;8.674;2023-07-31T05:20:14;2.20;;;1.60;;
82294;SDS011;71893;49.338;8.674;2023-07-31T05:21:14;3.08;;;1.83;;
82294;SDS011;71893;49.338;8.674;2023-07-31T05:22:15;2.72;;;1.50;;
82294;SDS011;71893;49.338;8.674;2023-07-31T05:23:15;3.45;;;1.83;;
82294;SDS011;71893;49.338;8.674;2023-07-31T05:24:15;3.08;;;1.92;;
82294;SDS011;71893;49.338;8.674;2023-07-31T05:25:15;3.37;;;1.50;;
82294;SDS011;71893;49.338;8.674;2023-07-31T05:27:16;2.50;;;1.47;;
82294;SDS011;71893;49.338;8.674;2023-07-31T05:28:18;2.90;;;1.70;;
82294;SDS011;71893;49.338;8.674;2023-07-31T05:29:18;2.63;;;1.50;;
82294;SDS011;71893;49.338;8.674;2023-07-31T05:30:18;6.03;;;1.60;;
82294;SDS011;71893;49.338;8.674;2023-07-31T05:31:19;6.53;;;1.65;;
82294;SDS011;71893;49.338;8.674;2023-07-31T05:32:20;5.40;;;1.73;;
82294;SDS011;71893;49.338;8.674;2023-07-31T05:33:21;3.13;;;1.70;;
82294;SDS011;71893;49.338;8.674;2023-07-31T05:34:21;3.28;;;1.80;;
82294;SDS011;71893;49.338;8.674;2023-07-31T05:35:21;4.23;;;1.47;;
82294;SDS011;71893;49.338;8.674;2023-07-31T05:37:22;5.17;;;2.17;;
82294;SDS011;71893;49.338;8.674;2023-07-31T05:39:22;5.73;;;1.53;;
82294;SDS011;71893;49.338;8.674;2023-07-31T05:40:22;4.18;;;1.58;;
82294;SDS011;71893;49.338;8.674;2023-07-31T05:41:22;4.93;;;1.85;;
82294;SDS011;71893;49.338;8.674;2023-07-31T05:42:23;1.90;;;1.33;;
82294;SDS011;71893;49.338;8.674;2023-07-31T05:43:23;5.35;;;1.67;;
82294;SDS011;71893;49.338;8.674;2023-07-31T05:44:23;4.55;;;1.60;;
82294;SDS011;71893;49.338;8.674;2023-07-31T05:45:24;8.70;;;2.37;;
82294;SDS011;71893;49.338;8.674;2023-07-31T05:46:25;3.40;;;2.03;;
82294;SDS011;71893;49.338;8.674;2023-07-31T05:47:25;4.00;;;1.92;;
82294;SDS011;71893;49.338;8.674;2023-07-31T05:48:25;5.35;;;2.10;;
82294;SDS011;71893;49.338;8.674;2023-07-31T05:49:25;4.63;;;1.70;;
82294;SDS011;71893;49.338;8.674;2023-07-31T05:50:26;7.27;;;1.83;;
82294;SDS011;71893;49.338;8.674;2023-07-31T05:51:26;4.53;;;1.77;;
82294;SDS011;71893;49.338;8.674;2023-07-31T05:52:27;2.53;;;1.75;;
82294;SDS011;71893;49.338;8.674;2023-07-31T05:53:28;4.22;;;1.80;;
82294;SDS011;71893;49.338;8.674;2023-07-31T05:54:29;4.47;;;1.75;;
82294;SDS011;71893;49.338;8.674;2023-07-31T05:55:29;4.53;;;1.70;;
82294;SDS011;71893;49.338;8.674;2023-07-31T05:56:29;4.00;;;1.90;;
82294;SDS011;71893;49.338;8.674;2023-07-31T05:58:30;5.73;;;2.90;;
82294;SDS011;71893;49.338;8.674;2023-07-31T05:59:30;7.53;;;3.10;;
82294;SDS011;71893;49.338;8.674;2023-07-31T06:00:33;5.18;;;2.30;;
82294;SDS011;71893;49.338;8.674;2023-07-31T06:01:33;4.55;;;2.22;;
82294;SDS011;71893;49.338;8.674;2023-07-31T06:02:33;7.43;;;2.80;;
82294;SDS011;71893;49.338;8.674;2023-07-31T06:03:36;8.50;;;2.28;;
82294;SDS011;71893;49.338;8.674;2023-07-31T06:04:36;5.80;;;2.43;;
82294;SDS011;71893;49.338;8.674;2023-07-31T06:05:36;8.98;;;2.95;;
82294;SDS011;71893;49.338;8.674;2023-07-31T06:06:37;9.03;;;2.90;;
82294;SDS011;71893;49.338;8.674;2023-07-31T06:07:37;6.97;;;2.20;;
82294;SDS011;71893;49.338;8.674;2023-07-31T06:08:37;4.93;;;2.38;;
82294;SDS011;71893;49.338;8.674;2023-07-31T06:09:37;6.63;;;2.65;;
82294;SDS011;71893;49.338;8.674;2023-07-31T06:10:37;5.03;;;2.47;;
82294;SDS011;71893;49.338;8.674;2023-07-31T06:11:38;5.70;;;2.38;;
82294;SDS011;71893;49.338;8.674;2023-07-31T06:12:38;8.73;;;2.53;;
82294;SDS011;71893;49.338;8.674;2023-07-31T06:13:39;7.10;;;3.03;;
82294;SDS011;71893;49.338;8.674;2023-07-31T06:14:39;5.35;;;2.10;;
82294;SDS011;71893;49.338;8.674;2023-07-31T06:16:39;5.50;;;2.50;;
82294;SDS011;71893;49.338;8.674;2023-07-31T06:17:39;8.95;;;2.40;;
82294;SDS011;71893;49.338;8.674;2023-07-31T06:18:41;4.45;;;2.08;;
82294;SDS011;71893;49.338;8.674;2023-07-31T06:20:41;5.40;;;2.30;;
82294;SDS011;71893;49.338;8.674;2023-07-31T06:21:42;5.40;;;2.50;;
82294;SDS011;71893;49.338;8.674;2023-07-31T06:22:43;4.05;;;2.30;;
82294;SDS011;71893;49.338;8.674;2023-07-31T06:23:44;11.70;;;3.00;;
82294;SDS011;71893;49.338;8.674;2023-07-31T06:25:44;4.78;;;2.13;;
82294;SDS011;71893;49.338;8.674;2023-07-31T06:26:44;6.23;;;2.20;;
82294;SDS011;71893;49.338;8.674;2023-07-31T06:28:45;7.37;;;2.60;;
82294;SDS011;71893;49.338;8.674;2023-07-31T06:29:45;5.40;;;2.70;;
82294;SDS011;71893;49.338;8.674;2023-07-31T06:30:45;7.10;;;2.10;;
82294;SDS011;71893;49.338;8.674;2023-07-31T06:31:45;3.33;;;2.20;;
82294;SDS011;71893;49.338;8.674;2023-07-31T06:32:46;3.50;;;1.98;;
82294;SDS011;71893;49.338;8.674;2023-07-31T06:33:46;6.97;;;2.70;;
82294;SDS011;71893;49.338;8.674;2023-07-31T06:34:46;3.53;;;1.90;;
82294;SDS011;71893;49.338;8.674;2023-07-31T06:36:46;5.83;;;2.23;;
82294;SDS011;71893;49.338;8.674;2023-07-31T06:37:46;4.73;;;1.93;;
82294;SDS011;71893;49.338;8.674;2023-07-31T06:38:47;6.07;;;2.50;;
82294;SDS011;71893;49.338;8.674;2023-07-31T06:39:47;4.80;;;2.45;;
82294;SDS011;71893;49.338;8.674;2023-07-31T06:40:48;9.07;;;2.30;;
82294;SDS011;71893;49.338;8.674;2023-07-31T06:41:49;3.90;;;2.35;;
82294;SDS011;71893;49.338;8.674;2023-07-31T06:43:49;15.73;;;2.60;;
82294;SDS011;71893;49.338;8.674;2023-07-31T06:45:49;6.30;;;2.27;;
82294;SDS011;71893;49.338;8.674;2023-07-31T06:46:51;3.97;;;2.10;;
82294;SDS011;71893;49.338;8.674;2023-07-31T06:47:51;3.40;;;1.90;;
82294;SDS011;71893;49.338;8.674;2023-07-31T06:48:51;5.67;;;2.20;;
82294;SDS011;71893;49.338;8.674;2023-07-31T06:49:51;6.70;;;2.10;;
82294;SDS011;71893;49.338;8.674;2023-07-31T06:51:52;3.67;;;2.10;;
82294;SDS011;71893;49.338;8.674;2023-07-31T06:52:52;4.00;;;1.93;;
82294;SDS011;71893;49.338;8.674;2023-07-31T06:56:11;4.35;;;2.20;;
82294;SDS011;71893;49.338;8.674;2023-07-31T06:57:11;2.92;;;2.00;;
82294;SDS011;71893;49.338;8.674;2023-07-31T06:58:12;4.80;;;2.40;;
82294;SDS011;71893;49.338;8.674;2023-07-31T06:59:12;10.27;;;2.10;;
82294;SDS011;71893;49.338;8.674;2023-07-31T07:00:12;4.13;;;2.33;;
82294;SDS011;71893;49.338;8.674;2023-07-31T07:01:13;5.10;;;2.22;;
82294;SDS011;71893;49.338;8.674;2023-07-31T07:02:13;4.40;;;1.97;;
82294;SDS011;71893;49.338;8.674;2023-07-31T07:04:14;4.28;;;1.83;;
82294;SDS011;71893;49.338;8.674;2023-07-31T07:05:15;5.63;;;2.15;;
82294;SDS011;71893;49.338;8.674;2023-07-31T07:06:16;6.50;;;1.92;;
82294;SDS011;71893;49.338;8.674;2023-07-31T07:07:16;3.80;;;2.10;;
82294;SDS011;71893;49.338;8.674;2023-07-31T07:08:17;3.55;;;2.05;;
82294;SDS011;71893;49.338;8.674;2023-07-31T07:09:17;4.63;;;2.17;;
82294;SDS011;71893;49.338;8.674;2023-07-31T07:10:18;4.75;;;2.30;;
82294;SDS011;71893;49.338;8.674;2023-07-31T07:11:18;6.07;;;1.92;;
82294;SDS011;71893;49.338;8.674;2023-07-31T07:13:18;3.87;;;2.03;;
82294;SDS011;71893;49.338;8.674;2023-07-31T07:14:19;3.85;;;2.03;;
82294;SDS011;71893;49.338;8.674;2023-07-31T07:15:19;3.45;;;2.03;;
82294;SDS011;71893;49.338;8.674;2023-07-31T07:16:19;3.23;;;1.97;;
82294;SDS011;71893;49.338;8.674;2023-07-31T07:17:19;4.10;;;1.90;;